Time;durP1;ratioP1;P1;durP2;ratioP2;P2;SDS_P1;SDS_P2;PMS_P1;PMS_P2;Temp;Humidity;BMP_temperature;BMP_pressure;BME280_temperature;BME280_humidity;BME280_pressure;Samples;Min_cycle;Max_cycle;Signal;HPM_P1;HPM_P2
2022/11/22 00:00:19;;;;;;;18.38;10.43;;;;;;;;;;5095746;28;20050;-90
2022/11/22 00:02:47;;;;;;;16.90;10.68;;;;;;;;;;5095533;28;20083;-89
2022/11/22 00:05:14;;;;;;;17.27;10.35;;;;;;;;;;5095847;28;20529;-89
2022/11/22 00:07:41;;;;;;;18.83;10.80;;;;;;;;;;5095432;28;20048;-90
2022/11/22 00:10:10;;;;;;;12.90;9.90;;;;;;;;;;5095473;28;20101;-89
2022/11/22 00:12:37;;;;;;;12.13;10.00;;;;;;;;;;5078917;28;20089;-89
2022/11/22 00:15:06;;;;;;;17.00;11.00;;;;;;;;;;5095559;28;20052;-89
2022/11/22 00:17:33;;;;;;;15.50;10.35;;;;;;;;;;5095666;28;20484;-90
2022/11/22 00:20:01;;;;;;;18.30;11.85;;;;;;;;;;5095795;28;20048;-90
2022/11/22 00:22:28;;;;;;;24.77;13.35;;;;;;;;;;5095539;28;20044;-90
2022/11/22 00:24:55;;;;;;;40.00;14.20;;;;;;;;;;5103014;28;20066;-89
2022/11/22 00:27:22;;;;;;;19.88;11.45;;;;;;;;;;5111202;28;20059;-89
2022/11/22 00:29:49;;;;;;;22.02;12.68;;;;;;;;;;5099384;28;20058;-89
2022/11/22 00:32:17;;;;;;;24.75;12.60;;;;;;;;;;5096412;28;20052;-89
2022/11/22 00:34:44;;;;;;;17.15;10.23;;;;;;;;;;5095279;28;20392;-90
2022/11/22 00:37:11;;;;;;;17.63;11.68;;;;;;;;;;5095335;28;20066;-90
2022/11/22 00:39:38;;;;;;;18.48;10.10;;;;;;;;;;5095023;28;20059;-89
2022/11/22 00:42:06;;;;;;;25.38;12.55;;;;;;;;;;5095025;28;20055;-90
2022/11/22 00:44:33;;;;;;;28.23;11.93;;;;;;;;;;5094587;28;20064;-90
2022/11/22 00:47:00;;;;;;;24.27;13.15;;;;;;;;;;5095843;28;20404;-89
2022/11/22 00:49:27;;;;;;;30.77;13.68;;;;;;;;;;5094451;28;20052;-90
2022/11/22 00:51:55;;;;;;;25.23;13.10;;;;;;;;;;5094666;28;20154;-90
2022/11/22 00:54:22;;;;;;;31.20;13.43;;;;;;;;;;5094818;28;20063;-89
2022/11/22 00:56:50;;;;;;;28.55;14.57;;;;;;;;;;5104096;28;20048;-90
2022/11/22 00:59:17;;;;;;;19.40;11.70;;;;;;;;;;5095562;28;20048;-89
2022/11/22 01:01:44;;;;;;;31.95;14.02;;;;;;;;;;5094788;28;20060;-87
2022/11/22 01:04:11;;;;;;;15.57;11.77;;;;;;;;;;5094665;28;20044;-88
2022/11/22 01:06:41;;;;;;;23.50;13.77;;;;;;;;;;5079597;28;20106;-91
2022/11/22 01:09:08;;;;;;;17.27;11.73;;;;;;;;;;5094620;28;20054;-88
2022/11/22 01:11:36;;;;;;;17.83;11.25;;;;;;;;;;5094504;28;20052;-88
2022/11/22 01:14:03;;;;;;;18.15;10.70;;;;;;;;;;5094473;28;20062;-87
2022/11/22 01:16:30;;;;;;;23.27;11.55;;;;;;;;;;5094211;28;20055;-90
2022/11/22 01:18:57;;;;;;;15.77;10.27;;;;;;;;;;5093375;28;20052;-90
2022/11/22 01:21:24;;;;;;;13.90;10.00;;;;;;;;;;5094276;28;20078;-90
2022/11/22 01:23:51;;;;;;;24.13;12.57;;;;;;;;;;5094121;28;20488;-90
2022/11/22 01:26:19;;;;;;;14.85;10.23;;;;;;;;;;5094191;28;20070;-91
2022/11/22 01:28:46;;;;;;;25.52;12.73;;;;;;;;;;5093951;28;20058;-91
2022/11/22 01:31:13;;;;;;;25.23;12.35;;;;;;;;;;5094284;28;20044;-90
2022/11/22 01:33:40;;;;;;;20.33;11.07;;;;;;;;;;5093997;28;20048;-90
2022/11/22 01:36:08;;;;;;;16.90;10.93;;;;;;;;;;5093692;28;20040;-90
2022/11/22 01:38:35;;;;;;;21.08;11.88;;;;;;;;;;5111295;27;20060;-91
2022/11/22 01:41:02;;;;;;;20.45;11.15;;;;;;;;;;5111315;28;20047;-90
2022/11/22 01:43:29;;;;;;;21.25;10.20;;;;;;;;;;5094134;28;20047;-90
2022/11/22 01:45:57;;;;;;;16.65;10.43;;;;;;;;;;5093341;28;20052;-90
2022/11/22 01:48:43;;;;;;;30.65;11.55;;;;;;;;;;5093792;28;20044;-91
2022/11/22 01:51:14;;;;;;;14.48;10.07;;;;;;;;;;5093481;28;20408;-90
2022/11/22 01:53:41;;;;;;;14.25;10.00;;;;;;;;;;5093718;28;20169;-91
2022/11/22 01:56:11;;;;;;;21.95;9.90;;;;;;;;;;5093584;28;20055;-88
2022/11/22 01:58:39;;;;;;;21.42;11.43;;;;;;;;;;5093529;28;20075;-91
2022/11/22 02:01:07;;;;;;;17.23;9.98;;;;;;;;;;5093439;28;20066;-89
2022/11/22 02:03:37;;;;;;;17.15;9.40;;;;;;;;;;5093643;28;20079;-90
2022/11/22 02:06:05;;;;;;;19.00;9.05;;;;;;;;;;5093321;28;20484;-90
2022/11/22 02:08:37;;;;;;;14.98;8.20;;;;;;;;;;5093298;28;20060;-90
2022/11/22 02:11:05;;;;;;;15.95;8.88;;;;;;;;;;5093314;28;20510;-90
2022/11/22 02:13:34;;;;;;;16.80;9.05;;;;;;;;;;5093131;28;20051;-90
2022/11/22 02:16:01;;;;;;;13.77;8.68;;;;;;;;;;5093091;28;20069;-90
2022/11/22 02:18:28;;;;;;;23.42;10.80;;;;;;;;;;5093063;28;20142;-90
2022/11/22 02:20:57;;;;;;;14.75;9.55;;;;;;;;;;5093136;28;20505;-90
2022/11/22 02:23:43;;;;;;;21.02;10.35;;;;;;;;;;5093063;28;20066;-90
2022/11/22 02:26:11;;;;;;;16.35;9.13;;;;;;;;;;5093196;28;20056;-90
2022/11/22 02:28:39;;;;;;;16.90;9.32;;;;;;;;;;5092696;28;20389;-90
2022/11/22 02:31:06;;;;;;;13.25;9.30;;;;;;;;;;5092744;28;20047;-90
2022/11/22 02:33:34;;;;;;;14.32;9.30;;;;;;;;;;5093087;28;20040;-91
2022/11/22 02:36:01;;;;;;;16.65;9.73;;;;;;;;;;5092942;28;20056;-90
2022/11/22 02:38:31;;;;;;;13.48;8.57;;;;;;;;;;5092902;28;20132;-90
2022/11/22 02:41:04;;;;;;;16.20;9.35;;;;;;;;;;5092776;28;20047;-90
2022/11/22 02:43:33;;;;;;;13.97;8.77;;;;;;;;;;5092895;28;20052;-90
2022/11/22 02:46:08;;;;;;;15.85;9.00;;;;;;;;;;5093201;28;20056;-90
2022/11/22 02:48:42;;;;;;;13.00;7.47;;;;;;;;;;5093544;28;20052;-90
2022/11/22 02:51:15;;;;;;;11.50;8.07;;;;;;;;;;5094103;28;20056;-90
2022/11/22 02:53:43;;;;;;;14.65;8.70;;;;;;;;;;5098875;28;20024;-90
2022/11/22 02:56:11;;;;;;;13.98;8.07;;;;;;;;;;5104064;28;20085;-89
2022/11/22 02:58:38;;;;;;;9.93;7.68;;;;;;;;;;5092747;28;20496;-90
2022/11/22 03:01:05;;;;;;;18.63;8.65;;;;;;;;;;5092459;28;20054;-90
2022/11/22 03:03:33;;;;;;;11.13;7.20;;;;;;;;;;5092414;28;20067;-90
2022/11/22 03:06:01;;;;;;;15.48;7.50;;;;;;;;;;5092677;28;20548;-90
2022/11/22 03:08:29;;;;;;;13.20;7.82;;;;;;;;;;5092467;28;20070;-90
2022/11/22 03:10:57;;;;;;;10.07;7.05;;;;;;;;;;5092322;28;20048;-90
2022/11/22 03:13:25;;;;;;;16.10;8.38;;;;;;;;;;5092512;28;20048;-90
2022/11/22 03:15:52;;;;;;;11.70;6.88;;;;;;;;;;5092443;28;20132;-90
2022/11/22 03:18:19;;;;;;;11.57;7.32;;;;;;;;;;5092808;28;20524;-90
2022/11/22 03:20:47;;;;;;;11.48;7.18;;;;;;;;;;5092592;28;20488;-90
2022/11/22 03:23:14;;;;;;;15.02;7.68;;;;;;;;;;5092685;28;20044;-88
2022/11/22 03:25:42;;;;;;;14.93;7.85;;;;;;;;;;5092719;28;20072;-90
2022/11/22 03:28:09;;;;;;;10.30;7.10;;;;;;;;;;5092611;28;20044;-90
2022/11/22 03:30:40;;;;;;;11.63;7.65;;;;;;;;;;5092171;28;20048;-90
2022/11/22 03:33:07;;;;;;;15.25;8.35;;;;;;;;;;5092654;28;20052;-90
2022/11/22 03:35:34;;;;;;;10.98;7.88;;;;;;;;;;5092325;28;20063;-90
2022/11/22 03:38:01;;;;;;;12.40;7.47;;;;;;;;;;5092423;28;20048;-90
2022/11/22 03:40:29;;;;;;;8.90;6.63;;;;;;;;;;5092215;28;20048;-89
2022/11/22 03:43:02;;;;;;;12.55;6.30;;;;;;;;;;5097079;28;20047;-90
2022/11/22 03:45:30;;;;;;;9.70;6.50;;;;;;;;;;5095591;28;20491;-90
2022/11/22 03:47:57;;;;;;;11.32;6.60;;;;;;;;;;5096326;28;20048;-90
2022/11/22 03:50:24;;;;;;;10.60;7.00;;;;;;;;;;5096860;28;20519;-89
2022/11/22 03:52:52;;;;;;;6.95;5.90;;;;;;;;;;5096780;28;20055;-89
2022/11/22 03:55:19;;;;;;;10.95;6.75;;;;;;;;;;5095618;28;20556;-90
2022/11/22 03:57:49;;;;;;;8.05;5.68;;;;;;;;;;5095677;28;20056;-89
2022/11/22 04:00:16;;;;;;;9.68;6.20;;;;;;;;;;5096759;28;20495;-90
2022/11/22 04:02:43;;;;;;;10.23;6.88;;;;;;;;;;5095558;28;20050;-89
2022/11/22 04:05:11;;;;;;;10.25;6.95;;;;;;;;;;5095832;28;20413;-90
2022/11/22 04:07:38;;;;;;;9.50;6.07;;;;;;;;;;5096814;28;20047;-91
2022/11/22 04:10:06;;;;;;;6.55;5.80;;;;;;;;;;5113475;28;20044;-89
2022/11/22 04:12:33;;;;;;;10.43;6.20;;;;;;;;;;5096982;28;20515;-87
2022/11/22 04:15:06;;;;;;;9.07;6.35;;;;;;;;;;5095501;28;20055;-90
2022/11/22 04:17:40;;;;;;;;;;;;;;;;;;5095964;28;20050;-89
2022/11/22 04:22:56;;;;;;;7.30;5.45;;;;;;;;;;5096347;28;20123;-89
2022/11/22 04:25:23;;;;;;;7.75;5.40;;;;;;;;;;5096231;28;20048;-90
2022/11/22 04:27:51;;;;;;;16.10;6.22;;;;;;;;;;5095186;28;20040;-90
2022/11/22 04:30:18;;;;;;;10.05;6.03;;;;;;;;;;5094972;28;20055;-90
2022/11/22 04:32:47;;;;;;;8.75;6.72;;;;;;;;;;5095084;28;20044;-90
2022/11/22 04:35:15;;;;;;;9.55;5.93;;;;;;;;;;5095195;28;20502;-90
2022/11/22 04:37:42;;;;;;;6.95;5.53;;;;;;;;;;5095056;28;20048;-89
2022/11/22 04:40:10;;;;;;;11.75;6.65;;;;;;;;;;5095179;28;20055;-90
2022/11/22 04:45:23;;;;;;;8.48;5.28;;;;;;;;;;5095581;28;20058;-89
2022/11/22 04:47:59;;;;;;;10.00;5.72;;;;;;;;;;5095036;28;20040;-89
2022/11/22 04:53:15;;;;;;;6.80;4.53;;;;;;;;;;5095725;28;20052;-89
2022/11/22 04:55:43;;;;;;;7.55;4.43;;;;;;;;;;5093720;28;20058;-87
2022/11/22 04:58:11;;;;;;;5.20;4.07;;;;;;;;;;5095436;28;20059;-88
2022/11/22 05:00:39;;;;;;;10.30;4.32;;;;;;;;;;5094389;28;20044;-87
2022/11/22 05:03:06;;;;;;;6.30;3.33;;;;;;;;;;5094432;28;20175;-87
2022/11/22 05:05:37;;;;;;;4.13;2.60;;;;;;;;;;5094422;28;20055;-87
2022/11/22 05:08:04;;;;;;;3.40;2.90;;;;;;;;;;5094236;28;20058;-88
2022/11/22 05:10:55;;;;;;;4.03;2.80;;;;;;;;;;5095060;28;20056;-87
2022/11/22 05:13:21;;;;;;;2.75;2.10;;;;;;;;;;5095138;28;20055;-89
2022/11/22 05:15:50;;;;;;;2.50;2.30;;;;;;;;;;5094232;28;20059;-88
2022/11/22 05:18:18;;;;;;;5.28;2.50;;;;;;;;;;5094447;28;20109;-88
2022/11/22 05:20:45;;;;;;;2.58;2.38;;;;;;;;;;5095568;28;20131;-88
2022/11/22 05:26:00;;;;;;;4.40;2.83;;;;;;;;;;5098791;28;20079;-89
2022/11/22 05:28:28;;;;;;;8.27;3.17;;;;;;;;;;5094442;28;20047;-89
2022/11/22 05:30:55;;;;;;;4.63;3.55;;;;;;;;;;5095204;28;20052;-89
2022/11/22 05:33:23;;;;;;;7.63;3.20;;;;;;;;;;5094263;28;20044;-89
2022/11/22 05:35:50;;;;;;;3.60;3.30;;;;;;;;;;5094019;28;20056;-88
2022/11/22 05:38:17;;;;;;;3.47;3.17;;;;;;;;;;5108645;27;20062;-89
2022/11/22 05:40:44;;;;;;;3.60;2.72;;;;;;;;;;5117461;27;20047;-89
2022/11/22 05:43:12;;;;;;;6.40;3.72;;;;;;;;;;5117845;27;20045;-88
2022/11/22 05:45:39;;;;;;;4.80;2.58;;;;;;;;;;5135543;27;20061;-88
2022/11/22 05:48:06;;;;;;;3.75;2.70;;;;;;;;;;5135665;27;20138;-88
2022/11/22 05:50:34;;;;;;;5.53;3.05;;;;;;;;;;5117557;27;20069;-88
2022/11/22 05:53:02;;;;;;;4.20;3.25;;;;;;;;;;5117280;27;20498;-86
2022/11/22 05:55:30;;;;;;;4.28;3.33;;;;;;;;;;5135425;27;20047;-88
2022/11/22 05:58:01;;;;;;;4.00;2.95;;;;;;;;;;5135481;27;20039;-88
2022/11/22 06:00:28;;;;;;;3.80;3.10;;;;;;;;;;5117032;27;20422;-88
2022/11/22 06:03:00;;;;;;;25.02;4.28;;;;;;;;;;5117452;27;20043;-89
2022/11/22 06:05:27;;;;;;;11.85;3.25;;;;;;;;;;5116816;27;20047;-88
2022/11/22 06:07:59;;;;;;;16.42;7.25;;;;;;;;;;5117033;27;20126;-88
2022/11/22 06:10:26;;;;;;;21.35;4.05;;;;;;;;;;5117107;27;20448;-88
2022/11/22 06:12:54;;;;;;;29.67;16.10;;;;;;;;;;5116958;27;20047;-89
2022/11/22 06:15:21;;;;;;;11.40;7.35;;;;;;;;;;5117037;27;20569;-89
2022/11/22 06:17:49;;;;;;;15.90;4.47;;;;;;;;;;5116831;27;20064;-89
2022/11/22 06:20:16;;;;;;;17.77;10.20;;;;;;;;;;5116993;27;20051;-89
2022/11/22 06:22:44;;;;;;;14.75;5.78;;;;;;;;;;5134944;27;20047;-89
2022/11/22 06:25:11;;;;;;;44.72;7.10;;;;;;;;;;5117292;27;20051;-89
2022/11/22 06:27:39;;;;;;;8.98;4.05;;;;;;;;;;5134958;27;20058;-88
2022/11/22 06:30:06;;;;;;;6.78;3.67;;;;;;;;;;5117274;27;20406;-88
2022/11/22 06:32:34;;;;;;;5.75;3.75;;;;;;;;;;5117199;27;20058;-89
2022/11/22 06:35:02;;;;;;;8.55;5.05;;;;;;;;;;5136818;27;20081;-89
2022/11/22 06:37:30;;;;;;;5.75;4.78;;;;;;;;;;5133800;27;20031;-88
2022/11/22 06:39:57;;;;;;;6.57;4.70;;;;;;;;;;5138460;27;20047;-88
2022/11/22 06:42:24;;;;;;;7.78;4.20;;;;;;;;;;5134627;27;20058;-89
2022/11/22 06:44:51;;;;;;;4.32;3.92;;;;;;;;;;5116343;28;20055;-89
2022/11/22 06:47:19;;;;;;;4.90;4.25;;;;;;;;;;5117063;27;20402;-89
2022/11/22 06:49:46;;;;;;;4.57;3.95;;;;;;;;;;5116552;27;20043;-88
2022/11/22 06:52:13;;;;;;;4.63;3.90;;;;;;;;;;5116808;28;20130;-89
2022/11/22 06:54:40;;;;;;;6.50;3.80;;;;;;;;;;5116575;28;20486;-89
2022/11/22 06:57:08;;;;;;;6.68;3.88;;;;;;;;;;5135359;28;20054;-88
2022/11/22 06:59:35;;;;;;;7.18;3.75;;;;;;;;;;5134534;28;20043;-87
2022/11/22 07:02:02;;;;;;;6.05;3.72;;;;;;;;;;5116255;28;20063;-88
2022/11/22 07:04:33;;;;;;;5.80;3.80;;;;;;;;;;5116743;28;20051;-88
2022/11/22 07:07:00;;;;;;;6.35;4.00;;;;;;;;;;5116176;28;20525;-89
2022/11/22 07:09:27;;;;;;;5.18;3.78;;;;;;;;;;5116386;28;20047;-89
2022/11/22 07:11:55;;;;;;;4.70;3.78;;;;;;;;;;5116308;28;20340;-87
2022/11/22 07:14:22;;;;;;;8.75;4.28;;;;;;;;;;5134274;28;20487;-88
2022/11/22 07:16:49;;;;;;;7.18;4.70;;;;;;;;;;5117988;27;20495;-88
2022/11/22 07:19:17;;;;;;;4.47;3.97;;;;;;;;;;5120503;27;20050;-89
2022/11/22 07:21:44;;;;;;;7.55;4.43;;;;;;;;;;5120338;27;20047;-88
2022/11/22 07:24:11;;;;;;;13.48;4.05;;;;;;;;;;5120410;27;20051;-88
2022/11/22 07:26:38;;;;;;;4.90;3.88;;;;;;;;;;5120139;27;20043;-87
2022/11/22 07:29:06;;;;;;;11.20;4.88;;;;;;;;;;5120115;27;20055;-87
2022/11/22 07:31:33;;;;;;;7.47;4.10;;;;;;;;;;5119057;27;20414;-87
2022/11/22 07:34:01;;;;;;;5.13;3.60;;;;;;;;;;5118184;27;20194;-88
2022/11/22 07:36:29;;;;;;;4.47;3.67;;;;;;;;;;5120321;27;20050;-86
2022/11/22 07:38:56;;;;;;;4.63;3.85;;;;;;;;;;5120182;27;20055;-88
2022/11/22 07:41:23;;;;;;;14.27;4.80;;;;;;;;;;5137958;27;20047;-88
2022/11/22 07:43:51;;;;;;;7.32;4.50;;;;;;;;;;5120132;27;20119;-88
2022/11/22 07:46:28;;;;;;;9.43;4.63;;;;;;;;;;5116141;28;20077;-85
2022/11/22 07:48:56;;;;;;;6.07;3.80;;;;;;;;;;5116873;28;20047;-88
2022/11/22 07:51:23;;;;;;;3.60;3.30;;;;;;;;;;5128403;28;20038;-88
2022/11/22 07:53:51;;;;;;;4.18;3.58;;;;;;;;;;5125552;28;20472;-88
2022/11/22 07:56:18;;;;;;;5.25;4.55;;;;;;;;;;5116251;28;20052;-89
2022/11/22 07:58:45;;;;;;;11.30;5.40;;;;;;;;;;5116278;28;20039;-88
2022/11/22 08:01:15;;;;;;;6.70;5.03;;;;;;;;;;5116142;28;20048;-89
2022/11/22 08:03:43;;;;;;;7.20;4.55;;;;;;;;;;5115968;28;20047;-86
2022/11/22 08:06:11;;;;;;;4.55;4.15;;;;;;;;;;5115829;28;20055;-89
2022/11/22 08:08:38;;;;;;;5.53;4.28;;;;;;;;;;5116028;28;20126;-88
2022/11/22 08:11:06;;;;;;;10.13;4.55;;;;;;;;;;5115913;28;20094;-89
2022/11/22 08:13:34;;;;;;;5.97;4.47;;;;;;;;;;5115744;28;20051;-88
2022/11/22 08:16:06;;;;;;;8.57;7.78;;;;;;;;;;5115584;28;20410;-87
2022/11/22 08:18:34;;;;;;;7.85;5.32;;;;;;;;;;5116300;28;20055;-88
2022/11/22 08:21:12;;;;;;;6.28;4.50;;;;;;;;;;5115626;28;20050;-88
2022/11/22 08:23:40;;;;;;;6.55;5.43;;;;;;;;;;5115426;28;20082;-88
2022/11/22 08:26:09;;;;;;;5.72;5.13;;;;;;;;;;5115427;28;20044;-88
2022/11/22 08:28:37;;;;;;;8.30;5.55;;;;;;;;;;5114974;28;20074;-87
2022/11/22 08:31:07;;;;;;;7.07;4.93;;;;;;;;;;5115244;28;20044;-88
2022/11/22 08:33:35;;;;;;;7.90;5.45;;;;;;;;;;5115535;28;20509;-88
2022/11/22 08:36:02;;;;;;;7.70;6.00;;;;;;;;;;5115326;28;20043;-88
2022/11/22 08:38:29;;;;;;;6.45;5.75;;;;;;;;;;5115427;28;20051;-89
2022/11/22 08:40:56;;;;;;;4.95;4.55;;;;;;;;;;5115985;28;20063;-88
2022/11/22 08:43:24;;;;;;;6.50;5.90;;;;;;;;;;5114919;28;20039;-88
2022/11/22 08:45:56;;;;;;;7.25;5.72;;;;;;;;;;5114629;28;20059;-88
2022/11/22 08:48:26;;;;;;;7.90;5.53;;;;;;;;;;5115208;28;20100;-88
2022/11/22 08:50:55;;;;;;;10.23;5.97;;;;;;;;;;5115050;28;20039;-85
2022/11/22 08:53:23;;;;;;;8.48;5.93;;;;;;;;;;5115251;28;20048;-88
2022/11/22 08:55:50;;;;;;;5.97;5.38;;;;;;;;;;5115114;28;20048;-88
2022/11/22 08:58:18;;;;;;;7.15;5.53;;;;;;;;;;5115157;28;20096;-88
2022/11/22 09:00:45;;;;;;;8.18;5.85;;;;;;;;;;5114941;28;20050;-89
2022/11/22 09:03:12;;;;;;;8.25;5.57;;;;;;;;;;5115155;28;20411;-85
2022/11/22 09:05:40;;;;;;;9.45;5.68;;;;;;;;;;5127520;28;20032;-88
2022/11/22 09:08:27;;;;;;;10.02;6.18;;;;;;;;;;5118845;28;20109;-88
2022/11/22 09:11:07;;;;;;;9.43;5.85;;;;;;;;;;5114742;28;20057;-88
2022/11/22 09:13:34;;;;;;;8.60;5.60;;;;;;;;;;5114763;28;20039;-88
2022/11/22 09:16:03;;;;;;;8.52;5.70;;;;;;;;;;5115354;28;20419;-89
2022/11/22 09:18:30;;;;;;;7.30;5.03;;;;;;;;;;5115640;28;20051;-88
2022/11/22 09:21:05;;;;;;;11.15;5.82;;;;;;;;;;5114641;28;20344;-88
2022/11/22 09:23:33;;;;;;;7.80;6.63;;;;;;;;;;5115381;28;20077;-88
2022/11/22 09:26:02;;;;;;;8.63;5.55;;;;;;;;;;5115299;28;20051;-88
2022/11/22 09:28:29;;;;;;;9.20;6.00;;;;;;;;;;5114372;28;20047;-88
2022/11/22 09:31:04;;;;;;;9.05;5.35;;;;;;;;;;5114102;28;20048;-89
2022/11/22 09:33:32;;;;;;;8.27;5.72;;;;;;;;;;5114403;28;20052;-89
2022/11/22 09:36:01;;;;;;;9.18;5.80;;;;;;;;;;5115083;28;20050;-88
2022/11/22 09:38:28;;;;;;;7.40;5.30;;;;;;;;;;5113745;28;20054;-88
2022/11/22 09:40:56;;;;;;;13.20;5.63;;;;;;;;;;5113805;28;20051;-88
2022/11/22 09:43:41;;;;;;;7.18;5.63;;;;;;;;;;5114202;28;20396;-88
2022/11/22 09:46:08;;;;;;;7.70;5.45;;;;;;;;;;5113898;28;20048;-88
2022/11/22 09:48:59;;;;;;;9.23;5.38;;;;;;;;;;5113811;28;20059;-88
2022/11/22 09:51:29;;;;;;;7.72;5.40;;;;;;;;;;5103756;28;20490;-88
2022/11/22 09:54:16;;;;;;;6.78;5.10;;;;;;;;;;5114081;28;20083;-87
2022/11/22 09:56:44;;;;;;;7.50;5.18;;;;;;;;;;5113500;28;20054;-88
2022/11/22 09:59:18;;;;;;;10.57;5.60;;;;;;;;;;5113435;28;20491;-87
2022/11/22 10:01:49;;;;;;;8.30;4.88;;;;;;;;;;5114718;27;20100;-88
2022/11/22 10:04:20;;;;;;;7.07;4.85;;;;;;;;;;5114107;28;20047;-89
2022/11/22 10:06:53;;;;;;;10.55;4.88;;;;;;;;;;5113885;28;20074;-88
2022/11/22 10:09:40;;;;;;;14.38;6.03;;;;;;;;;;5113472;28;20050;-85
2022/11/22 10:12:10;;;;;;;6.15;4.53;;;;;;;;;;5113493;28;20054;-85
2022/11/22 10:14:47;;;;;;;4.75;4.30;;;;;;;;;;5113316;28;20403;-86
2022/11/22 10:17:23;;;;;;;5.68;4.43;;;;;;;;;;5113623;28;20053;-85
2022/11/22 10:19:53;;;;;;;4.80;4.30;;;;;;;;;;5127214;28;20050;-86
2022/11/22 10:22:20;;;;;;;6.90;4.13;;;;;;;;;;5116630;28;20411;-85
2022/11/22 10:24:50;;;;;;;5.80;4.30;;;;;;;;;;5113127;28;20078;-87
2022/11/22 10:27:18;;;;;;;9.20;5.00;;;;;;;;;;5113183;28;20048;-86
2022/11/22 10:29:54;;;;;;;13.45;4.60;;;;;;;;;;5113342;28;20055;-86
2022/11/22 10:32:25;;;;;;;10.98;4.68;;;;;;;;;;5113323;28;20052;-86
2022/11/22 10:35:01;;;;;;;6.55;4.63;;;;;;;;;;5114670;28;20492;-86
2022/11/22 10:37:34;;;;;;;6.13;5.10;;;;;;;;;;5112973;28;20054;-86
2022/11/22 10:40:14;;;;;;;7.15;4.43;;;;;;;;;;5113143;28;20130;-87
2022/11/22 10:43:01;;;;;;;6.55;4.60;;;;;;;;;;5113125;28;20039;-87
2022/11/22 10:45:48;;;;;;;7.97;4.50;;;;;;;;;;5124344;27;20059;-87
2022/11/22 10:48:23;;;;;;;34.15;6.22;;;;;;;;;;5134305;27;20051;-87
2022/11/22 10:51:00;;;;;;;10.98;4.50;;;;;;;;;;5116362;28;20049;-86
2022/11/22 10:53:31;;;;;;;7.45;5.00;;;;;;;;;;5116221;28;20047;-86
2022/11/22 10:56:08;;;;;;;14.00;4.90;;;;;;;;;;5134458;28;20051;-86
2022/11/22 10:58:45;;;;;;;8.20;5.03;;;;;;;;;;5116151;28;20408;-87
2022/11/22 11:01:28;;;;;;;6.75;4.20;;;;;;;;;;5116012;28;20066;-87
2022/11/22 11:03:58;;;;;;;6.70;4.57;;;;;;;;;;5116325;28;20153;-86
2022/11/22 11:06:34;;;;;;;7.30;4.70;;;;;;;;;;5116337;28;20111;-86
2022/11/22 11:09:25;;;;;;;7.10;4.03;;;;;;;;;;5134391;28;20047;-86
2022/11/22 11:12:18;;;;;;;5.93;4.60;;;;;;;;;;5118967;28;20047;-87
2022/11/22 11:14:46;;;;;;;46.00;25.48;;;;;;;;;;5115974;28;20054;-86
2022/11/22 11:17:17;;;;;;;11.38;5.57;;;;;;;;;;5116097;28;20039;-86
2022/11/22 11:19:46;;;;;;;19.02;5.20;;;;;;;;;;5116206;28;20082;-86
2022/11/22 11:22:33;;;;;;;20.80;13.13;;;;;;;;;;5115935;28;20055;-87
2022/11/22 11:25:26;;;;;;;8.63;4.68;;;;;;;;;;5134113;28;20039;-86
2022/11/22 11:27:56;;;;;;;9.82;4.68;;;;;;;;;;5116301;28;20130;-85
2022/11/22 11:30:23;;;;;;;7.40;4.43;;;;;;;;;;5116026;28;20051;-86
2022/11/22 11:32:55;;;;;;;5.90;4.63;;;;;;;;;;5119447;28;20043;-86
2022/11/22 11:35:24;;;;;;;11.60;4.90;;;;;;;;;;5145564;28;20078;-87
2022/11/22 11:37:51;;;;;;;6.82;4.88;;;;;;;;;;5115891;28;20047;-87
2022/11/22 11:40:28;;;;;;;8.98;4.57;;;;;;;;;;5115967;28;20055;-88
2022/11/22 11:43:15;;;;;;;13.40;4.57;;;;;;;;;;5133846;28;20097;-87
2022/11/22 11:45:43;;;;;;;18.15;4.85;;;;;;;;;;5133609;28;20070;-87
2022/11/22 11:48:26;;;;;;;7.35;3.65;;;;;;;;;;5115926;28;20051;-87
2022/11/22 11:51:08;;;;;;;11.10;3.70;;;;;;;;;;5116017;28;20043;-88
2022/11/22 11:53:35;;;;;;;8.13;3.25;;;;;;;;;;5115815;28;20511;-87
2022/11/22 11:56:21;;;;;;;8.77;4.03;;;;;;;;;;5133941;28;20054;-87
2022/11/22 11:58:53;;;;;;;13.30;3.90;;;;;;;;;;5115521;28;20058;-87
2022/11/22 12:01:20;;;;;;;12.05;3.38;;;;;;;;;;5133627;27;20047;-87
2022/11/22 12:03:55;;;;;;;6.32;2.97;;;;;;;;;;5136888;27;20057;-87
2022/11/22 12:06:27;;;;;;;11.30;3.25;;;;;;;;;;5119598;27;20498;-88
2022/11/22 12:08:54;;;;;;;10.93;3.90;;;;;;;;;;5119506;27;20091;-87
2022/11/22 12:11:33;;;;;;;6.20;3.20;;;;;;;;;;5119158;27;20047;-87
2022/11/22 12:14:03;;;;;;;8.75;3.33;;;;;;;;;;5119437;27;20066;-87
2022/11/22 12:16:47;;;;;;;7.40;3.28;;;;;;;;;;5121718;27;20099;-87
2022/11/22 12:19:21;;;;;;;6.68;3.03;;;;;;;;;;5137117;27;20130;-87
2022/11/22 12:22:11;;;;;;;8.85;3.42;;;;;;;;;;5122513;27;20051;-87
2022/11/22 12:25:03;;;;;;;9.88;3.15;;;;;;;;;;5122284;27;20050;-87
2022/11/22 12:27:50;;;;;;;5.63;3.63;;;;;;;;;;5122015;27;20107;-87
2022/11/22 12:30:18;;;;;;;8.98;3.67;;;;;;;;;;5137022;27;20055;-87
2022/11/22 12:33:06;;;;;;;6.93;3.47;;;;;;;;;;5118532;27;20050;-87
2022/11/22 12:35:36;;;;;;;10.68;3.75;;;;;;;;;;5118763;27;20570;-87
2022/11/22 12:38:10;;;;;;;7.50;3.42;;;;;;;;;;5118826;27;20088;-87
2022/11/22 12:40:42;;;;;;;7.20;3.22;;;;;;;;;;5118687;27;20057;-85
2022/11/22 12:43:22;;;;;;;12.63;3.50;;;;;;;;;;5136649;27;20050;-87
2022/11/22 12:45:54;;;;;;;5.70;3.47;;;;;;;;;;5118777;27;20055;-87
2022/11/22 12:48:29;;;;;;;7.93;3.42;;;;;;;;;;5135812;27;20087;-85
2022/11/22 12:51:00;;;;;;;6.78;3.50;;;;;;;;;;5119141;27;20047;-86
2022/11/22 12:53:28;;;;;;;8.75;5.03;;;;;;;;;;5118575;27;20043;-86
2022/11/22 12:56:03;;;;;;;8.93;3.47;;;;;;;;;;5118356;27;20054;-86
2022/11/22 12:58:43;;;;;;;8.63;2.90;;;;;;;;;;5118784;27;20479;-86
2022/11/22 13:01:17;;;;;;;10.57;3.60;;;;;;;;;;5118243;27;20505;-86
2022/11/22 13:03:57;;;;;;;9.27;3.50;;;;;;;;;;5136296;27;20121;-87
2022/11/22 13:06:27;;;;;;;6.75;3.28;;;;;;;;;;5118644;27;20055;-87
2022/11/22 13:09:00;;;;;;;7.00;2.85;;;;;;;;;;5118558;27;20069;-86
2022/11/22 13:11:30;;;;;;;4.93;3.03;;;;;;;;;;5118416;27;20047;-87
2022/11/22 13:14:04;;;;;;;8.38;3.25;;;;;;;;;;5117049;27;20063;-87
2022/11/22 13:16:31;;;;;;;;;;;;;;;;;;5136296;27;20050;-87
2022/11/22 13:19:00;;;;;;;8.27;3.22;;;;;;;;;;5118093;27;19920;-87
2022/11/22 13:21:41;;;;;;;9.25;2.83;;;;;;;;;;5117983;27;20043;-87
2022/11/22 13:24:11;;;;;;;9.77;3.33;;;;;;;;;;5117740;27;20043;-86
2022/11/22 13:26:42;;;;;;;7.57;3.60;;;;;;;;;;5117861;27;20047;-87
2022/11/22 13:29:18;;;;;;;8.15;4.07;;;;;;;;;;5117783;27;20054;-87
2022/11/22 13:32:03;;;;;;;9.60;3.63;;;;;;;;;;5135628;27;20052;-86
2022/11/22 13:34:31;;;;;;;10.15;3.72;;;;;;;;;;5135535;27;20062;-87
2022/11/22 13:37:25;;;;;;;5.63;3.30;;;;;;;;;;5117637;27;20155;-87
2022/11/22 13:39:52;;;;;;;11.43;4.18;;;;;;;;;;5131516;27;20051;-87
2022/11/22 13:42:23;;;;;;;6.85;3.47;;;;;;;;;;5135849;27;20047;-86
2022/11/22 13:44:56;;;;;;;8.63;4.25;;;;;;;;;;5117044;27;20051;-86
2022/11/22 13:47:23;;;;;;;8.80;3.70;;;;;;;;;;5135104;27;20074;-87
2022/11/22 13:49:52;;;;;;;9.45;4.00;;;;;;;;;;5117204;27;20410;-86
2022/11/22 13:52:19;;;;;;;9.02;3.63;;;;;;;;;;5117265;27;20131;-86
2022/11/22 13:54:47;;;;;;;9.25;3.53;;;;;;;;;;5135267;27;20479;-86
2022/11/22 13:57:25;;;;;;;9.63;3.55;;;;;;;;;;5135173;27;20058;-86
2022/11/22 14:00:13;;;;;;;7.93;2.80;;;;;;;;;;5135793;27;20043;-87
2022/11/22 14:02:43;;;;;;;6.78;3.20;;;;;;;;;;5134344;27;20047;-86
2022/11/22 14:05:22;;;;;;;8.40;3.17;;;;;;;;;;5117326;27;20039;-87
2022/11/22 14:07:54;;;;;;;8.15;2.90;;;;;;;;;;5117328;27;20134;-87
2022/11/22 14:10:46;;;;;;;7.57;3.40;;;;;;;;;;5117030;27;20043;-86
2022/11/22 14:13:20;;;;;;;8.43;3.05;;;;;;;;;;5116975;27;20509;-87
2022/11/22 14:15:47;;;;;;;10.90;3.60;;;;;;;;;;5116990;27;20099;-87
2022/11/22 14:18:33;;;;;;;9.00;3.33;;;;;;;;;;5116933;27;20051;-88
2022/11/22 14:21:04;;;;;;;13.35;3.78;;;;;;;;;;5116729;27;20054;-87
2022/11/22 14:23:42;;;;;;;10.45;3.28;;;;;;;;;;5116871;27;20487;-85
2022/11/22 14:26:13;;;;;;;12.50;3.55;;;;;;;;;;5116580;28;20050;-87
2022/11/22 14:28:43;;;;;;;8.05;3.35;;;;;;;;;;5116693;27;20050;-87
2022/11/22 14:31:24;;;;;;;8.15;3.33;;;;;;;;;;5116368;27;20065;-86
2022/11/22 14:34:10;;;;;;;7.25;3.28;;;;;;;;;;5116051;27;20549;-87
2022/11/22 14:36:38;;;;;;;14.45;3.70;;;;;;;;;;5116618;27;20047;-86
2022/11/22 14:39:34;;;;;;;13.98;4.10;;;;;;;;;;5116429;27;20055;-86
2022/11/22 14:42:01;;;;;;;8.98;3.80;;;;;;;;;;5134455;27;20399;-87
2022/11/22 14:44:33;;;;;;;7.82;3.55;;;;;;;;;;5134359;27;20506;-87
2022/11/22 14:47:13;;;;;;;5.47;3.33;;;;;;;;;;5134627;27;20047;-87
2022/11/22 14:49:42;;;;;;;6.03;3.58;;;;;;;;;;5116452;28;20047;-87
2022/11/22 14:52:19;;;;;;;12.27;4.05;;;;;;;;;;5116520;27;20070;-87
2022/11/22 14:54:48;;;;;;;13.23;3.90;;;;;;;;;;5116511;28;20050;-87
2022/11/22 14:57:18;;;;;;;7.53;3.65;;;;;;;;;;5116593;28;20051;-87
2022/11/22 14:59:48;;;;;;;17.55;3.72;;;;;;;;;;5116480;28;20062;-87
2022/11/22 15:02:36;;;;;;;13.60;3.70;;;;;;;;;;5134377;28;20047;-87
2022/11/22 15:05:11;;;;;;;9.60;4.40;;;;;;;;;;5134355;28;20535;-87
2022/11/22 15:08:18;;;;;;;8.45;3.90;;;;;;;;;;5119637;28;20047;-87